»·PEaware :: N768CC KLAX-KSNA

N768CC :: KLAX-KSNA

FLIGHT INFORMATION

Flight Status: Arrived
Operator: Privately registered:
United States
More flights under this callsign
Pilot: Carr B. (31183)
Aircraft: MOONEY M-20 201 202 205 220 ATS MSE
(M20P)
More flights by this aircraft type
Origin: KLAX Los Angeles Intl
United States
Destination: KSNA John Wayne-Orange Co
United States
More flights between these airports :: More routes between these airports
Route: +SLI8 SLI
File this flight plan on PilotEdge
Remarks:
Altitude:
(Current/Filed)
4,000ft
Speed:
(Current/Filed)
150kts
Departed: 29-Oct-20 04:23 PM
Arrived: 29-Oct-20 05:23 PM
Distance/Time
Traveled:
31nm/1:00
Distance/Time
To Go:
Arrived

Flight Plot

Page will automatically refresh every two minutes.

Flight plan parsing failed; only flown route is shown


Map Options




Map Legend


Flown Route
Filed Route
Departure Airport
Arrival Airport
Navaid (VOR, NDB)
Fix

Horizontal Profiles

Position Reports

Time Latitude Longitude Heading Altitude Ground
Speed
29-Oct-20 16:12 33.933207 -118.397459 264 107ft 0kts
29-Oct-20 16:13 33.933207 -118.397459 264 107ft 0kts
29-Oct-20 16:14 33.933207 -118.397459 264 107ft 0kts
29-Oct-20 16:15 33.933207 -118.397459 264 107ft 0kts
29-Oct-20 16:16 33.933207 -118.397459 264 107ft 0kts
29-Oct-20 16:17 33.933202 -118.397526 266 107ft 7kts
29-Oct-20 16:18 33.934840 -118.395382 83 104ft 13kts
29-Oct-20 16:19 33.935749 -118.386509 83 97ft 30kts
29-Oct-20 16:20 33.936390 -118.382863 4 94ft 0kts
29-Oct-20 16:21 33.936390 -118.382863 4 94ft 0kts
29-Oct-20 16:22 33.935137 -118.402750 263 351ft 118kts
29-Oct-20 16:23 33.924489 -118.449771 218 1518ft 145kts
29-Oct-20 16:24 33.886673 -118.476182 212 2218ft 162kts
29-Oct-20 16:25 33.845329 -118.488171 144 2943ft 173kts
29-Oct-20 16:26 33.804551 -118.448672 141 2976ft 196kts
29-Oct-20 16:27 33.761299 -118.406415 141 2979ft 202kts
29-Oct-20 16:28 33.717730 -118.363329 141 2982ft 203kts
29-Oct-20 16:29 33.674009 -118.320056 141 2979ft 203kts
29-Oct-20 16:30 33.630426 -118.276611 141 2977ft 203kts
29-Oct-20 16:31 33.587326 -118.232778 141 2978ft 201kts
29-Oct-20 16:32 33.545173 -118.189231 141 2987ft 198kts
29-Oct-20 16:33 33.503585 -118.146022 141 2989ft 196kts
29-Oct-20 16:37 33.933207 -118.397465 263 107ft 0kts
29-Oct-20 16:38 33.933207 -118.397465 263 107ft 0kts
29-Oct-20 16:39 33.933207 -118.397465 263 107ft 0kts
29-Oct-20 16:40 33.933207 -118.397464 264 107ft 0kts
29-Oct-20 16:41 33.933207 -118.397464 264 107ft 0kts
29-Oct-20 16:42 33.933207 -118.397464 264 107ft 0kts
29-Oct-20 16:43 33.933207 -118.397464 264 107ft 0kts
29-Oct-20 16:44 33.933207 -118.397464 264 107ft 0kts
29-Oct-20 16:45 33.934507 -118.398081 44 107ft 17kts
29-Oct-20 16:46 33.935150 -118.392407 81 100ft 34kts
29-Oct-20 16:47 33.935822 -118.385720 85 97ft 4kts
29-Oct-20 16:48 33.936311 -118.382836 15 94ft 0kts
29-Oct-20 16:49 33.936385 -118.382814 8 94ft 0kts
29-Oct-20 16:50 33.935429 -118.400452 263 203ft 123kts
29-Oct-20 16:51 33.926701 -118.447940 227 1047ft 146kts
29-Oct-20 16:52 33.891513 -118.473202 212 1907ft 146kts
29-Oct-20 16:53 33.856622 -118.497518 213 2719ft 145kts
29-Oct-20 16:54 33.820260 -118.480267 142 3477ft 154kts
29-Oct-20 16:55 33.785983 -118.448300 142 3990ft 170kts
29-Oct-20 16:56 33.745678 -118.410787 142 3984ft 190kts
29-Oct-20 16:57 33.703833 -118.370923 130 3990ft 193kts
29-Oct-20 16:58 33.703289 -118.309104 79 3991ft 188kts
29-Oct-20 16:59 33.710708 -118.246980 78 3989ft 185kts
29-Oct-20 17:00 33.718894 -118.185993 78 3996ft 184kts
29-Oct-20 17:01 33.727379 -118.126198 81 3996ft 178kts
29-Oct-20 17:02 33.738655 -118.070647 57 3995ft 169kts
29-Oct-20 17:03 33.783982 -118.056474 33 3994ft 169kts
29-Oct-20 17:04 33.807322 -118.008237 64 3999ft 171kts
29-Oct-20 17:05 33.825931 -117.955401 65 3998ft 171kts
29-Oct-20 17:06 33.844320 -117.902601 65 3997ft 171kts
29-Oct-20 17:07 33.863974 -117.850573 60 3995ft 169kts
29-Oct-20 17:08 33.885934 -117.800657 60 3995ft 168kts
29-Oct-20 17:09 33.907650 -117.750605 62 3996ft 168kts
29-Oct-20 17:10 33.935311 -117.708137 27 3998ft 165kts
29-Oct-20 17:11 33.975978 -117.683392 354 3997ft 162kts
29-Oct-20 17:12 33.972429 -117.717662 183 4002ft 162kts
29-Oct-20 17:13 33.928322 -117.713533 176 3998ft 153kts
29-Oct-20 17:14 33.890473 -117.731069 207 3997ft 143kts
29-Oct-20 17:15 33.855137 -117.751969 211 3998ft 140kts
29-Oct-20 17:16 33.818642 -117.776325 210 3407ft 144kts
29-Oct-20 17:17 33.786814 -117.797287 214 2595ft 115kts
29-Oct-20 17:18 33.759589 -117.815701 211 1791ft 107kts
29-Oct-20 17:19 33.734581 -117.830973 208 1198ft 96kts
29-Oct-20 17:20 33.709694 -117.846971 212 724ft 92kts
29-Oct-20 17:21 33.685743 -117.862391 209 208ft 91kts
29-Oct-20 17:22 33.676026 -117.869921 296 58ft 0kts
29-Oct-20 17:23 33.676518 -117.870719 248 58ft 10kts
29-Oct-20 17:24 33.676233 -117.871118 215 58ft 0kts
29-Oct-20 17:25 33.676233 -117.871118 215 58ft 0kts
29-Oct-20 17:26 33.676233 -117.871118 215 58ft 0kts

Navigation Log

Ident Type
Flight plan parsing failed, navigation log unavailable